createdAt,value
2018-09-11T00:01:25.920Z,14.79
2018-09-11T00:03:53.860Z,14.65
2018-09-11T00:06:21.828Z,14.65
2018-09-11T00:08:50.001Z,14.62
2018-09-11T00:11:17.936Z,14.56
2018-09-11T00:13:45.998Z,14.61
2018-09-11T00:16:14.023Z,14.34
2018-09-11T00:18:47.017Z,14.34
2018-09-11T00:21:14.917Z,14.24
2018-09-11T00:23:42.901Z,14.33
2018-09-11T00:26:11.011Z,14.24
2018-09-11T00:28:38.998Z,14.01
2018-09-11T00:31:06.973Z,14.33
2018-09-11T00:33:36.060Z,14.08
2018-09-11T00:36:04.021Z,14.22
2018-09-11T00:38:31.973Z,14.32
2018-09-11T00:40:59.962Z,14.29
2018-09-11T00:43:28.063Z,14.16
2018-09-11T00:45:56.020Z,14.33
2018-09-11T00:48:24.014Z,14.29
2018-09-11T00:50:52.103Z,14.42
2018-09-11T00:53:19.975Z,14.49
2018-09-11T00:55:48.361Z,14.56
2018-09-11T00:58:16.370Z,14.40
2018-09-11T01:00:44.338Z,14.06
2018-09-11T01:03:12.325Z,14.11
2018-09-11T01:05:40.873Z,14.18
2018-09-11T01:08:08.850Z,12.63
2018-09-11T01:10:36.758Z,14.35
2018-09-11T01:13:04.698Z,14.18
2018-09-11T01:15:32.604Z,14.12
2018-09-11T01:18:00.504Z,14.10
2018-09-11T01:20:28.497Z,14.03
2018-09-11T01:22:56.452Z,14.13
2018-09-11T01:25:24.409Z,14.05
2018-09-11T01:27:52.566Z,13.79
2018-09-11T01:30:21.896Z,13.89
2018-09-11T01:32:50.770Z,13.99
2018-09-11T01:35:18.820Z,14.18
2018-09-11T01:37:47.024Z,14.20
2018-09-11T01:40:14.941Z,14.17
2018-09-11T01:42:42.893Z,14.07
2018-09-11T01:45:10.802Z,13.96
2018-09-11T01:47:38.831Z,14.03
2018-09-11T01:50:06.952Z,14.04
2018-09-11T01:52:34.834Z,14.05
2018-09-11T01:55:02.838Z,13.97
2018-09-11T01:57:30.829Z,13.88
2018-09-11T01:59:58.797Z,13.79
2018-09-11T02:02:26.819Z,13.60
2018-09-11T02:04:54.936Z,13.43
2018-09-11T02:07:22.874Z,13.30
2018-09-11T02:09:50.866Z,13.42
2018-09-11T02:12:18.844Z,13.60
2018-09-11T02:14:46.955Z,13.62
2018-09-11T02:17:15.016Z,13.59
2018-09-11T02:19:43.276Z,13.56
2018-09-11T02:22:11.263Z,13.57
2018-09-11T02:24:39.298Z,13.49
2018-09-11T02:27:07.022Z,13.41
2018-09-11T02:29:34.993Z,13.34
2018-09-11T02:32:02.987Z,13.25
2018-09-11T02:34:30.958Z,13.22
2018-09-11T02:36:58.919Z,13.39
2018-09-11T02:39:26.885Z,13.50
2018-09-11T02:41:54.910Z,13.91
2018-09-11T02:44:22.839Z,13.76
2018-09-11T02:46:50.794Z,13.70
2018-09-11T02:49:18.777Z,13.65
2018-09-11T02:51:46.803Z,13.98
2018-09-11T02:54:14.666Z,14.33
2018-09-11T02:56:42.701Z,14.36
2018-09-11T02:59:10.616Z,14.38
2018-09-11T03:01:38.527Z,14.11
2018-09-11T03:04:06.411Z,13.94
2018-09-11T03:06:34.866Z,14.03
2018-09-11T03:09:03.483Z,14.23
2018-09-11T03:11:31.477Z,14.34
2018-09-11T03:13:59.386Z,14.49
2018-09-11T03:16:28.408Z,14.68
2018-09-11T03:18:57.323Z,14.89
2018-09-11T03:21:25.796Z,15.06
2018-09-11T03:23:53.691Z,15.25
2018-09-11T03:26:21.771Z,15.38
2018-09-11T03:28:49.812Z,15.40
2018-09-11T03:31:17.745Z,15.37
2018-09-11T03:33:45.760Z,15.27
2018-09-11T03:36:13.683Z,15.31
2018-09-11T03:38:41.658Z,15.48
2018-09-11T03:41:09.548Z,15.53
2018-09-11T03:43:37.475Z,15.55
2018-09-11T03:46:05.510Z,15.57
2018-09-11T03:48:33.511Z,15.68
2018-09-11T03:51:01.486Z,15.73
2018-09-11T03:53:29.427Z,16.03
2018-09-11T03:55:57.482Z,16.15
2018-09-11T03:58:25.462Z,16.33
2018-09-11T04:00:53.408Z,16.46
2018-09-11T04:03:21.335Z,16.68
2018-09-11T04:05:49.267Z,16.65
2018-09-11T04:08:18.122Z,16.39
2018-09-11T04:10:45.992Z,16.51
2018-09-11T04:13:14.038Z,16.40
2018-09-11T04:15:41.967Z,16.12
2018-09-11T04:18:09.843Z,16.15
2018-09-11T04:20:37.862Z,16.08
2018-09-11T04:23:05.941Z,16.14
2018-09-11T04:25:33.907Z,15.71
2018-09-11T04:28:01.806Z,14.29
2018-09-11T04:30:29.816Z,13.63
2018-09-11T04:32:57.733Z,13.34
2018-09-11T04:35:25.679Z,13.34
2018-09-11T04:37:53.533Z,13.38
2018-09-11T04:40:21.635Z,13.50
2018-09-11T04:42:49.606Z,13.01
2018-09-11T04:45:17.471Z,13.65
2018-09-11T04:47:45.477Z,13.32
2018-09-11T04:50:13.410Z,13.34
2018-09-11T04:52:41.330Z,13.34
2018-09-11T04:55:09.205Z,13.34
2018-09-11T04:57:37.226Z,13.28
2018-09-11T05:00:05.317Z,13.19
2018-09-11T05:02:33.267Z,13.41
2018-09-11T05:05:01.161Z,13.47
2018-09-11T05:07:29.225Z,13.46
2018-09-11T05:09:57.093Z,13.75
2018-09-11T05:12:25.126Z,13.56
2018-09-11T05:14:52.993Z,13.70
2018-09-11T05:17:20.891Z,13.74
2018-09-11T05:19:48.906Z,13.89
2018-09-11T05:22:16.907Z,13.92
2018-09-11T05:24:45.085Z,13.90
2018-09-11T05:27:13.210Z,13.89
2018-09-11T05:29:41.494Z,13.78
2018-09-11T05:32:09.803Z,13.97
2018-09-11T05:34:38.993Z,14.18
2018-09-11T05:37:06.974Z,14.22
2018-09-11T05:39:35.674Z,14.35
2018-09-11T05:42:03.775Z,14.43
2018-09-11T05:44:32.260Z,14.54
2018-09-11T05:47:00.397Z,14.76
2018-09-11T05:49:28.360Z,14.65
2018-09-11T05:51:56.497Z,14.77
2018-09-11T05:54:24.556Z,14.91
2018-09-11T05:56:52.494Z,14.96
2018-09-11T05:59:20.448Z,15.42
2018-09-11T06:01:48.714Z,15.69
2018-09-11T06:04:16.746Z,15.67
2018-09-11T06:06:44.696Z,15.28
2018-09-11T06:09:13.648Z,15.66
2018-09-11T06:11:41.813Z,16.45
2018-09-11T06:14:10.028Z,16.11
2018-09-11T06:16:37.943Z,16.33
2018-09-11T06:19:06.150Z,16.45
2018-09-11T06:21:34.236Z,16.31
2018-09-11T06:24:03.884Z,16.06
2018-09-11T06:26:34.173Z,16.13
2018-09-11T06:29:02.360Z,16.14
2018-09-11T06:31:30.584Z,16.52
2018-09-11T06:33:58.630Z,16.34
2018-09-11T06:36:27.243Z,16.98
2018-09-11T06:38:55.229Z,17.63
2018-09-11T06:41:24.270Z,17.75
2018-09-11T06:43:53.327Z,17.33
2018-09-11T06:46:21.353Z,17.92
2018-09-11T06:48:49.613Z,18.41
2018-09-11T06:51:19.503Z,18.81
2018-09-11T06:53:47.437Z,19.43
2018-09-11T06:56:15.532Z,19.75
2018-09-11T06:58:43.593Z,20.54
2018-09-11T07:01:13.686Z,20.27
2018-09-11T07:03:41.628Z,20.85
2018-09-11T07:06:09.683Z,20.85
2018-09-11T07:08:37.761Z,21.33
2018-09-11T07:11:06.100Z,20.98
2018-09-11T07:13:34.050Z,21.09
2018-09-11T07:16:09.274Z,21.81
2018-09-11T07:18:37.148Z,23.06
2018-09-11T07:21:05.102Z,24.08
2018-09-11T07:23:40.734Z,25.18
2018-09-11T07:26:09.288Z,26.09
2018-09-11T07:28:38.053Z,25.67
2018-09-11T07:31:06.408Z,25.19
2018-09-11T07:33:41.823Z,25.33
2018-09-11T07:36:10.808Z,23.89
2018-09-11T07:38:38.690Z,23.36
2018-09-11T07:41:07.354Z,23.55
2018-09-11T07:43:42.623Z,24.24
2018-09-11T07:46:12.566Z,23.86
2018-09-11T07:48:42.010Z,23.12
2018-09-11T07:51:10.108Z,23.01
2018-09-11T07:53:38.258Z,22.80
2018-09-11T07:56:07.137Z,22.45
2018-09-11T07:58:35.650Z,22.52
2018-09-11T08:01:03.907Z,22.42
2018-09-11T08:03:32.116Z,22.18
2018-09-11T08:06:00.163Z,22.11
2018-09-11T08:08:32.246Z,22.98
2018-09-11T08:11:02.401Z,23.52
2018-09-11T08:13:30.772Z,22.92
2018-09-11T08:15:58.828Z,23.42
2018-09-11T08:18:26.847Z,23.52
2018-09-11T08:20:54.879Z,23.31
2018-09-11T08:23:23.081Z,23.46
2018-09-11T08:25:51.032Z,24.14
2018-09-11T08:28:19.070Z,24.29
2018-09-11T08:30:54.159Z,24.92
2018-09-11T08:33:22.170Z,24.98
2018-09-11T08:35:50.228Z,24.33
2018-09-11T08:38:19.197Z,24.85
2018-09-11T08:40:47.296Z,24.58
2018-09-11T08:43:16.621Z,25.46
2018-09-11T08:45:45.263Z,26.13
2018-09-11T08:48:13.947Z,25.70
2018-09-11T08:50:42.071Z,25.65
2018-09-11T08:53:12.839Z,24.94
2018-09-11T08:55:42.120Z,24.48
2018-09-11T08:58:10.122Z,25.60
2018-09-11T09:00:38.159Z,25.78
2018-09-11T09:03:06.489Z,25.80
2018-09-11T09:05:34.491Z,24.41
2018-09-11T09:08:02.627Z,24.29
2018-09-11T09:10:31.823Z,25.27
2018-09-11T09:12:59.947Z,24.93
2018-09-11T09:15:29.147Z,25.34
2018-09-11T09:17:57.165Z,25.19
2018-09-11T09:20:25.998Z,24.66
2018-09-11T09:22:54.866Z,24.20
2018-09-11T09:25:23.704Z,23.73
2018-09-11T09:27:51.623Z,23.58
2018-09-11T09:30:19.535Z,24.46
2018-09-11T09:32:47.558Z,25.41
2018-09-11T09:35:15.576Z,26.58
2018-09-11T09:37:43.667Z,27.07
2018-09-11T09:40:11.747Z,26.34
2018-09-11T09:42:39.778Z,26.58
2018-09-11T09:45:08.830Z,26.91
2018-09-11T09:47:37.043Z,26.46
2018-09-11T09:50:05.319Z,25.71
2018-09-11T09:52:33.385Z,26.46
2018-09-11T09:55:01.421Z,24.95
2018-09-11T09:57:29.520Z,24.63
2018-09-11T09:59:57.496Z,25.37
2018-09-11T10:02:25.521Z,25.41
2018-09-11T10:05:06.389Z,25.68
2018-09-11T10:07:34.485Z,26.29
2018-09-11T10:10:03.613Z,26.44
2018-09-11T10:12:31.773Z,26.37
2018-09-11T10:14:59.874Z,24.39
2018-09-11T10:17:29.573Z,24.10
2018-09-11T10:19:57.526Z,24.38
2018-09-11T10:22:25.613Z,24.64
2018-09-11T10:24:53.698Z,25.09
2018-09-11T10:27:22.840Z,24.93
2018-09-11T10:29:52.030Z,25.29
2018-09-11T10:32:20.978Z,26.22
2018-09-11T10:34:49.072Z,26.73
2018-09-11T10:37:30.759Z,27.33
2018-09-11T10:39:58.737Z,27.37
2018-09-11T10:42:26.668Z,27.51
2018-09-11T10:44:55.456Z,27.88
2018-09-11T10:47:23.587Z,28.06
2018-09-11T10:49:51.588Z,27.56
2018-09-11T10:52:19.601Z,27.69
2018-09-11T10:54:47.760Z,27.33
2018-09-11T10:57:15.716Z,26.39
2018-09-11T10:59:44.416Z,25.92
2018-09-11T11:02:12.499Z,26.18
2018-09-11T11:04:42.433Z,26.22
2018-09-11T11:07:10.566Z,25.49
2018-09-11T11:09:39.383Z,25.09
2018-09-11T11:12:07.581Z,25.01
2018-09-11T11:14:35.640Z,25.30
2018-09-11T11:17:04.327Z,25.32
2018-09-11T11:22:07.703Z,25.44
2018-09-11T11:24:35.757Z,25.10
2018-09-11T11:27:03.888Z,25.77
2018-09-11T11:29:38.472Z,26.03
2018-09-11T11:32:07.903Z,25.01
2018-09-11T11:34:35.929Z,24.52
2018-09-11T11:37:03.967Z,25.36
2018-09-11T11:39:31.993Z,25.81
2018-09-11T11:42:01.199Z,25.95
2018-09-11T11:44:29.337Z,25.96
2018-09-11T11:46:57.401Z,25.84
2018-09-11T11:49:25.524Z,26.20
2018-09-11T11:51:53.593Z,26.23
2018-09-11T11:54:22.126Z,25.31
2018-09-11T11:56:50.004Z,25.00
2018-09-11T11:59:17.965Z,24.56
2018-09-11T12:01:46.166Z,24.37
2018-09-11T12:04:14.253Z,24.82
2018-09-11T12:06:42.243Z,25.60
2018-09-11T12:09:11.415Z,25.81
2018-09-11T12:11:39.624Z,25.81
2018-09-11T12:14:07.811Z,25.44
2018-09-11T12:16:35.847Z,25.12
2018-09-11T12:19:04.862Z,25.03
2018-09-11T12:21:32.804Z,24.60
2018-09-11T12:24:00.924Z,24.74
2018-09-11T12:26:28.837Z,25.15
2018-09-11T12:28:56.787Z,25.42
2018-09-11T12:31:24.810Z,24.63
2018-09-11T12:33:52.701Z,24.34
2018-09-11T12:36:20.637Z,24.51
2018-09-11T12:38:48.913Z,24.75
2018-09-11T12:41:16.958Z,24.93
2018-09-11T12:43:47.934Z,24.53
2018-09-11T12:46:16.392Z,24.30
2018-09-11T12:48:44.377Z,24.40
2018-09-11T12:51:12.375Z,24.45
2018-09-11T12:53:40.542Z,24.54
2018-09-11T12:56:08.713Z,24.67
2018-09-11T12:58:36.768Z,24.31
2018-09-11T13:01:04.930Z,24.40
2018-09-11T13:03:32.938Z,23.99
2018-09-11T13:06:01.308Z,23.82
2018-09-11T13:08:29.511Z,23.98
2018-09-11T13:10:57.593Z,23.92
2018-09-11T13:13:26.258Z,23.95
2018-09-11T13:15:54.261Z,23.90
2018-09-11T13:18:22.409Z,23.84
2018-09-11T13:20:50.327Z,24.08
2018-09-11T13:23:18.604Z,24.32
2018-09-11T13:25:46.664Z,24.78
2018-09-11T13:28:15.283Z,24.58
2018-09-11T13:30:43.301Z,24.97
2018-09-11T13:33:11.401Z,24.76
2018-09-11T13:35:39.298Z,24.67
2018-09-11T13:38:07.282Z,25.02
2018-09-11T13:40:35.322Z,25.26
2018-09-11T13:43:03.436Z,25.30
2018-09-11T13:45:31.422Z,24.96
2018-09-11T13:47:59.504Z,25.18
2018-09-11T13:50:27.487Z,25.08
2018-09-11T13:52:58.127Z,25.13
2018-09-11T13:55:26.143Z,25.47
2018-09-11T13:57:54.162Z,25.12
2018-09-11T14:00:22.253Z,25.04
2018-09-11T14:02:50.755Z,24.71
2018-09-11T14:05:19.457Z,24.82
2018-09-11T14:07:47.465Z,24.75
2018-09-11T14:10:15.542Z,24.84
2018-09-11T14:12:43.496Z,24.85
2018-09-11T14:15:11.462Z,24.95
2018-09-11T14:17:41.264Z,25.62
2018-09-11T14:20:09.244Z,25.42
2018-09-11T14:22:37.873Z,25.06
2018-09-11T14:25:06.126Z,24.85
2018-09-11T14:27:34.585Z,24.85
2018-09-11T14:30:02.778Z,24.72
2018-09-11T14:32:30.977Z,24.92
2018-09-11T14:34:58.949Z,24.67
2018-09-11T14:37:26.900Z,24.69
2018-09-11T14:39:54.937Z,24.49
2018-09-11T14:42:22.931Z,23.89
2018-09-11T14:44:51.336Z,23.82
2018-09-11T14:47:19.242Z,24.06
2018-09-11T14:49:47.470Z,23.78
2018-09-11T14:52:15.638Z,23.41
2018-09-11T14:54:43.835Z,23.51
2018-09-11T14:57:11.997Z,23.89
2018-09-11T14:59:40.920Z,24.02
2018-09-11T15:02:08.910Z,23.94
2018-09-11T15:04:36.882Z,24.20
2018-09-11T15:07:05.060Z,24.32
2018-09-11T15:09:33.059Z,24.46
2018-09-11T15:12:02.177Z,24.15
2018-09-11T15:14:32.983Z,22.45
2018-09-11T15:17:00.967Z,23.83
2018-09-11T15:19:28.920Z,23.87
2018-09-11T15:21:57.457Z,23.85
2018-09-11T15:24:25.566Z,23.70
2018-09-11T15:26:54.622Z,23.64
2018-09-11T15:29:22.638Z,23.73
2018-09-11T15:31:50.691Z,23.77
2018-09-11T15:34:18.827Z,24.24
2018-09-11T15:36:46.921Z,24.60
2018-09-11T15:39:14.972Z,24.06
2018-09-11T15:41:43.012Z,23.58
2018-09-11T15:44:11.012Z,23.85
2018-09-11T15:46:38.947Z,24.17
2018-09-11T15:49:06.927Z,24.16
2018-09-11T15:51:34.951Z,24.23
2018-09-11T15:54:02.963Z,23.74
2018-09-11T15:56:31.789Z,23.64
2018-09-11T15:58:59.789Z,23.78
2018-09-11T16:01:27.750Z,23.46
2018-09-11T16:03:55.711Z,23.22
2018-09-11T16:06:23.708Z,23.20
2018-09-11T16:08:51.603Z,23.03
2018-09-11T16:11:19.642Z,23.00
2018-09-11T16:13:47.630Z,22.79
2018-09-11T16:16:15.568Z,22.90
2018-09-11T16:18:43.743Z,23.10
2018-09-11T16:21:11.821Z,22.78
2018-09-11T16:23:40.074Z,22.78
2018-09-11T16:26:08.048Z,22.82
2018-09-11T16:28:36.078Z,22.45
2018-09-11T16:31:04.397Z,22.42
2018-09-11T16:33:32.368Z,22.46
2018-09-11T16:36:00.610Z,22.26
2018-09-11T16:38:29.582Z,22.06
2018-09-11T16:40:57.514Z,21.91
2018-09-11T16:43:25.539Z,21.83
2018-09-11T16:45:53.632Z,21.71
2018-09-11T16:48:22.375Z,21.70
2018-09-11T16:50:50.434Z,21.61
2018-09-11T16:53:18.417Z,21.54
2018-09-11T16:55:46.347Z,21.64
2018-09-11T16:58:14.414Z,21.84
2018-09-11T17:00:42.463Z,21.91
2018-09-11T17:03:10.471Z,21.96
2018-09-11T17:05:38.471Z,22.20
2018-09-11T17:08:07.198Z,22.17
2018-09-11T17:10:35.901Z,22.12
2018-09-11T17:13:04.202Z,22.23
2018-09-11T17:15:32.246Z,22.20
2018-09-11T17:18:00.182Z,22.20
2018-09-11T17:20:28.197Z,22.23
2018-09-11T17:22:56.166Z,22.30
2018-09-11T17:25:24.190Z,22.18
2018-09-11T17:27:52.248Z,21.98
2018-09-11T17:30:20.226Z,21.97
2018-09-11T17:32:48.211Z,21.47
2018-09-11T17:35:16.091Z,21.90
2018-09-11T17:37:44.046Z,21.84
2018-09-11T17:40:12.049Z,21.81
2018-09-11T17:42:40.146Z,21.70
2018-09-11T17:45:08.143Z,21.66
2018-09-11T17:47:36.166Z,21.58
2018-09-11T17:50:04.437Z,21.58
2018-09-11T17:52:32.535Z,21.55
2018-09-11T17:55:00.426Z,21.56
2018-09-11T17:57:28.376Z,21.52
2018-09-11T17:59:56.347Z,21.45
2018-09-11T18:02:24.339Z,21.39
2018-09-11T18:04:52.267Z,21.40
2018-09-11T18:07:20.223Z,21.52
2018-09-11T18:09:49.183Z,21.47
2018-09-11T18:12:17.166Z,21.29
2018-09-11T18:14:45.553Z,21.27
2018-09-11T18:17:13.581Z,21.26
2018-09-11T18:19:41.732Z,21.16
2018-09-11T18:22:09.744Z,21.14
2018-09-11T18:24:37.843Z,21.08
2018-09-11T18:27:07.512Z,20.92
2018-09-11T18:29:35.530Z,20.80
2018-09-11T18:32:03.588Z,20.80
2018-09-11T18:34:31.598Z,20.82
2018-09-11T18:36:59.528Z,20.80
2018-09-11T18:39:28.073Z,20.73
2018-09-11T18:41:56.030Z,20.72
2018-09-11T18:44:23.963Z,20.75
2018-09-11T18:46:51.912Z,20.75
2018-09-11T18:49:19.877Z,20.68
2018-09-11T18:51:47.902Z,20.64
2018-09-11T18:54:15.878Z,20.63
2018-09-11T18:56:43.906Z,20.58
2018-09-11T18:59:11.856Z,20.56
2018-09-11T19:01:39.785Z,20.48
2018-09-11T19:04:07.673Z,20.42
2018-09-11T19:06:35.667Z,20.41
2018-09-11T19:09:04.846Z,20.40
2018-09-11T19:11:32.834Z,20.41
2018-09-11T19:14:01.068Z,20.43
2018-09-11T19:16:29.112Z,20.43
2018-09-11T19:18:56.994Z,20.43
2018-09-11T19:21:24.922Z,20.35
2018-09-11T19:23:52.799Z,20.45
2018-09-11T19:26:20.797Z,20.39
2018-09-11T19:28:49.133Z,20.48
2018-09-11T19:31:17.036Z,20.48
2018-09-11T19:33:47.898Z,20.43
2018-09-11T19:36:15.798Z,20.42
2018-09-11T19:38:43.723Z,20.38
2018-09-11T19:41:11.718Z,20.35
2018-09-11T19:43:39.603Z,20.30
2018-09-11T19:46:07.523Z,20.31
2018-09-11T19:48:35.775Z,20.36
2018-09-11T19:51:03.759Z,20.33
2018-09-11T19:53:31.776Z,20.34
2018-09-11T19:55:59.944Z,20.34
2018-09-11T19:58:27.938Z,20.31
2018-09-11T20:00:55.864Z,20.23
2018-09-11T20:03:23.815Z,20.24
2018-09-11T20:05:51.790Z,20.21
2018-09-11T20:08:20.005Z,20.01
2018-09-11T20:10:48.072Z,19.82
2018-09-11T20:13:16.112Z,19.20
2018-09-11T20:15:44.054Z,18.82
2018-09-11T20:18:12.102Z,18.69
2018-09-11T20:20:40.009Z,18.63
2018-09-11T20:23:08.004Z,18.71
2018-09-11T20:25:36.099Z,18.85
2018-09-11T20:28:04.103Z,18.47
2018-09-11T20:30:32.014Z,18.28
2018-09-11T20:32:59.925Z,18.11
2018-09-11T20:35:28.046Z,18.15
2018-09-11T20:37:55.982Z,18.06
2018-09-11T20:40:24.125Z,18.01
2018-09-11T20:42:52.056Z,18.04
2018-09-11T20:45:20.098Z,18.00
2018-09-11T20:47:48.062Z,18.09
2018-09-11T20:50:16.124Z,18.24
2018-09-11T20:52:44.156Z,18.24
2018-09-11T20:55:12.250Z,18.24
2018-09-11T20:57:40.206Z,18.21
2018-09-11T21:00:08.129Z,18.19
2018-09-11T21:02:36.126Z,18.20
2018-09-11T21:05:04.303Z,18.21
2018-09-11T21:07:34.380Z,18.25
2018-09-11T21:10:02.340Z,18.35
2018-09-11T21:12:30.908Z,18.10
2018-09-11T21:14:58.770Z,18.12
2018-09-11T21:17:26.742Z,18.09
2018-09-11T21:19:54.693Z,17.93
2018-09-11T21:22:22.573Z,18.03
2018-09-11T21:24:50.571Z,18.17
2018-09-11T21:27:18.511Z,18.12
2018-09-11T21:29:46.745Z,17.99
2018-09-11T21:32:14.661Z,17.99
2018-09-11T21:34:42.848Z,18.04
2018-09-11T21:37:10.771Z,17.97
2018-09-11T21:39:39.494Z,18.00
2018-09-11T21:42:07.541Z,18.09
2018-09-11T21:44:35.433Z,17.99
2018-09-11T21:47:03.426Z,17.77
2018-09-11T21:49:31.460Z,17.78
2018-09-11T21:51:59.600Z,17.81
2018-09-11T21:54:27.501Z,17.73
2018-09-11T21:56:55.473Z,17.80
2018-09-11T21:59:23.482Z,17.83
2018-09-11T22:01:52.000Z,17.98
2018-09-11T22:04:20.883Z,17.95
2018-09-11T22:06:48.854Z,17.86
2018-09-11T22:09:16.809Z,17.74
2018-09-11T22:11:44.743Z,17.68
2018-09-11T22:14:12.684Z,17.63
2018-09-11T22:16:40.551Z,17.63
2018-09-11T22:19:08.546Z,17.34
2018-09-11T22:21:37.206Z,17.45
2018-09-11T22:24:05.328Z,17.28
2018-09-11T22:26:33.613Z,17.34
2018-09-11T22:29:01.551Z,17.34
2018-09-11T22:31:29.734Z,17.36
2018-09-11T22:33:57.585Z,17.26
2018-09-11T22:36:25.770Z,17.16
2018-09-11T22:38:53.827Z,17.18
2018-09-11T22:41:21.780Z,17.16
2018-09-11T22:43:50.156Z,16.97
2018-09-11T22:46:18.284Z,16.56
2018-09-11T22:48:46.196Z,16.38
2018-09-11T22:51:14.118Z,16.44
2018-09-11T22:53:42.266Z,16.42
2018-09-11T22:56:10.196Z,16.50
2018-09-11T22:58:38.059Z,16.84
2018-09-11T23:01:06.051Z,16.84
2018-09-11T23:03:34.026Z,16.70
2018-09-11T23:06:02.098Z,16.47
2018-09-11T23:08:30.088Z,16.68
2018-09-11T23:10:58.026Z,17.01
2018-09-11T23:13:25.955Z,16.78
2018-09-11T23:15:53.846Z,16.71
2018-09-11T23:18:21.853Z,16.62
2018-09-11T23:20:49.846Z,16.38
2018-09-11T23:23:17.829Z,16.36
2018-09-11T23:25:45.955Z,16.21
2018-09-11T23:28:13.867Z,16.27
2018-09-11T23:30:41.863Z,16.21
2018-09-11T23:33:09.884Z,16.21
2018-09-11T23:35:37.898Z,16.26
2018-09-11T23:38:05.937Z,16.26
2018-09-11T23:40:33.968Z,16.24
2018-09-11T23:43:01.865Z,16.17
2018-09-11T23:45:29.846Z,16.03
2018-09-11T23:47:57.837Z,16.09
2018-09-11T23:50:25.757Z,16.07
2018-09-11T23:52:53.795Z,15.82
2018-09-11T23:55:21.843Z,16.10
2018-09-11T23:57:49.872Z,16.22
